createdAt,value
2018-04-14T00:01:25.274Z,55.30
2018-04-14T00:06:21.031Z,55.60
2018-04-14T00:11:16.697Z,55.60
2018-04-14T00:13:44.922Z,55.80
2018-04-14T00:16:12.242Z,55.70
2018-04-14T00:18:39.607Z,55.40
2018-04-14T00:21:07.707Z,55.00
2018-04-14T00:23:35.087Z,55.00
2018-04-14T00:26:02.600Z,55.40
2018-04-14T00:28:29.951Z,54.90
2018-04-14T00:30:57.358Z,54.50
2018-04-14T00:33:25.458Z,54.40
2018-04-14T00:35:52.832Z,53.80
2018-04-14T00:40:48.491Z,54.20
2018-04-14T00:43:16.295Z,54.10
2018-04-14T00:45:43.690Z,54.10
2018-04-14T00:48:11.134Z,54.30
2018-04-14T00:50:39.273Z,54.00
2018-04-14T00:53:19.112Z,52.90
2018-04-14T00:55:47.114Z,52.60
2018-04-14T00:58:14.478Z,52.50
2018-04-14T01:00:41.874Z,53.20
2018-04-14T01:03:09.962Z,52.50
2018-04-14T01:05:37.332Z,52.10
2018-04-14T01:08:05.426Z,52.20
2018-04-14T01:10:32.763Z,52.40
2018-04-14T01:13:00.903Z,52.20
2018-04-14T01:15:28.289Z,53.70
2018-04-14T01:17:56.385Z,53.10
2018-04-14T01:20:23.755Z,52.60
2018-04-14T01:25:19.367Z,51.90
2018-04-14T01:27:46.731Z,52.80
2018-04-14T01:30:14.092Z,53.80
2018-04-14T01:32:41.474Z,51.90
2018-04-14T01:35:09.056Z,52.90
2018-04-14T01:37:36.879Z,52.70
2018-04-14T01:40:05.038Z,53.00
2018-04-14T01:42:32.411Z,52.50
2018-04-14T01:44:59.741Z,52.70
2018-04-14T01:47:27.874Z,52.20
2018-04-14T01:57:20.224Z,53.10
2018-04-14T02:04:45.160Z,54.10
2018-04-14T02:07:12.486Z,52.10
2018-04-14T02:09:39.846Z,52.50
2018-04-14T02:14:36.666Z,53.40
2018-04-14T02:19:33.192Z,53.00
2018-04-14T02:22:01.261Z,53.90
2018-04-14T02:24:29.635Z,52.20
2018-04-14T02:26:57.745Z,51.80
2018-04-14T02:29:25.226Z,53.20
2018-04-14T02:34:20.971Z,53.10
2018-04-14T02:41:45.649Z,52.10
2018-04-14T02:44:13.086Z,51.10
2018-04-14T02:49:09.724Z,52.20
2018-04-14T02:51:37.096Z,51.60
2018-04-14T02:54:04.650Z,51.20
2018-04-14T02:56:32.011Z,51.20
2018-04-14T03:01:27.685Z,51.00
2018-04-14T03:03:55.178Z,51.40
2018-04-14T03:06:23.403Z,52.20
2018-04-14T03:08:50.783Z,51.70
2018-04-14T03:13:47.217Z,51.80
2018-04-14T03:18:43.774Z,51.60
2018-04-14T03:21:11.138Z,52.70
2018-04-14T03:23:38.503Z,52.20
2018-04-14T03:26:05.875Z,51.70
2018-04-14T03:31:01.468Z,51.90
2018-04-14T03:33:28.919Z,52.00
2018-04-14T03:35:56.294Z,52.40
2018-04-14T03:38:24.511Z,51.80
2018-04-14T03:40:51.886Z,53.20
2018-04-14T03:43:19.277Z,53.00
2018-04-14T03:45:47.450Z,51.70
2018-04-14T03:50:43.110Z,52.40
2018-04-14T03:53:11.356Z,53.50
2018-04-14T03:55:38.728Z,53.40
2018-04-14T03:58:06.172Z,53.40
2018-04-14T04:03:02.567Z,53.20
2018-04-14T04:05:30.702Z,53.60
2018-04-14T04:07:58.023Z,53.10
2018-04-14T04:10:26.157Z,53.80
2018-04-14T04:12:53.491Z,53.60
2018-04-14T04:17:49.915Z,54.10
2018-04-14T04:20:29.238Z,53.90
2018-04-14T04:28:06.055Z,54.90
2018-04-14T04:33:01.558Z,52.60
2018-04-14T04:37:57.043Z,54.20
2018-04-14T04:40:24.231Z,53.60
2018-04-14T04:42:51.567Z,53.10
2018-04-14T04:45:19.574Z,53.10
2018-04-14T04:47:46.774Z,53.90
2018-04-14T04:52:42.919Z,54.00
2018-04-14T04:55:11.055Z,53.80
2018-04-14T04:57:38.314Z,53.70
2018-04-14T05:00:05.659Z,52.90
2018-04-14T05:02:32.905Z,52.50
2018-04-14T05:05:00.081Z,52.10
2018-04-14T05:07:27.320Z,52.10
2018-04-14T05:09:54.534Z,52.70
2018-04-14T05:12:22.571Z,52.10
2018-04-14T05:14:49.789Z,53.30
2018-04-14T05:17:17.026Z,52.20
2018-04-14T05:19:44.270Z,51.40
2018-04-14T05:22:11.498Z,52.80
2018-04-14T05:24:39.465Z,53.40
2018-04-14T05:27:07.451Z,52.20
2018-04-14T05:29:34.707Z,52.70
2018-04-14T05:32:01.936Z,53.00
2018-04-14T05:36:57.290Z,52.40
2018-04-14T05:39:24.706Z,52.10
2018-04-14T05:44:20.123Z,51.40
2018-04-14T05:46:47.423Z,51.50
2018-04-14T05:49:14.663Z,52.20
2018-04-14T05:51:42.804Z,51.50
2018-04-14T05:56:38.967Z,50.10
2018-04-14T06:01:34.305Z,48.00
2018-04-14T06:04:01.522Z,48.40
2018-04-14T06:06:28.788Z,47.00
2018-04-14T06:08:56.979Z,46.40
2018-04-14T06:11:24.219Z,46.40
2018-04-14T06:16:20.384Z,46.80
2018-04-14T06:18:48.552Z,45.80
2018-04-14T06:21:15.773Z,45.40
2018-04-14T06:26:12.736Z,45.00
2018-04-14T06:31:08.104Z,44.70
2018-04-14T06:33:35.435Z,45.20
2018-04-14T06:36:03.407Z,45.00
2018-04-14T06:38:30.714Z,44.70
2018-04-14T06:40:57.994Z,44.50
2018-04-14T06:43:25.248Z,44.90
2018-04-14T06:48:20.732Z,44.00
2018-04-14T06:50:48.049Z,43.70
2018-04-14T06:53:16.078Z,43.40
2018-04-14T06:55:44.050Z,42.80
2018-04-14T06:58:11.263Z,42.90
2018-04-14T07:00:38.489Z,42.40
2018-04-14T07:03:05.686Z,42.50
2018-04-14T07:05:32.930Z,43.40
2018-04-14T07:08:00.127Z,42.10
2018-04-14T07:10:27.532Z,43.00
2018-04-14T07:15:22.986Z,42.90
2018-04-14T07:17:50.250Z,42.20
2018-04-14T07:20:18.300Z,41.70
2018-04-14T07:25:13.678Z,40.20
2018-04-14T07:27:42.090Z,39.90
2018-04-14T07:30:09.301Z,39.80
2018-04-14T07:32:36.532Z,38.70
2018-04-14T07:35:03.803Z,38.90
2018-04-14T07:39:59.335Z,38.30
2018-04-14T07:42:27.331Z,37.80
2018-04-14T07:44:54.995Z,38.10
2018-04-14T07:47:22.297Z,38.00
2018-04-14T07:49:49.509Z,36.50
2018-04-14T07:54:44.946Z,37.10
2018-04-14T07:57:12.154Z,36.70
2018-04-14T07:59:40.217Z,37.30
2018-04-14T08:02:08.320Z,36.60
2018-04-14T08:07:03.915Z,36.00
2018-04-14T08:09:31.240Z,36.00
2018-04-14T08:11:59.222Z,35.70
2018-04-14T08:16:54.944Z,35.00
2018-04-14T08:19:22.911Z,34.80
2018-04-14T08:24:18.376Z,33.20
2018-04-14T08:26:45.628Z,33.20
2018-04-14T08:29:12.885Z,33.00
2018-04-14T08:31:40.439Z,32.90
2018-04-14T08:34:08.367Z,33.10
2018-04-14T08:39:03.695Z,38.70
2018-04-14T08:41:31.661Z,37.50
2018-04-14T08:43:59.536Z,37.10
2018-04-14T08:46:27.569Z,36.00
2018-04-14T08:49:00.784Z,35.60
2018-04-14T08:51:30.686Z,35.30
2018-04-14T08:53:57.931Z,34.90
2018-04-14T08:56:25.483Z,34.50
2018-04-14T08:58:53.563Z,34.10
2018-04-14T09:01:21.628Z,33.50
2018-04-14T09:03:49.205Z,33.00
2018-04-14T09:06:17.179Z,31.90
2018-04-14T09:11:13.664Z,32.30
2018-04-14T09:13:40.956Z,31.70
2018-04-14T09:16:08.271Z,31.30
2018-04-14T09:21:08.809Z,30.30
2018-04-14T09:23:37.159Z,30.20
2018-04-14T09:26:04.724Z,30.40
2018-04-14T09:28:32.180Z,29.80
2018-04-14T09:30:59.564Z,29.50
2018-04-14T09:33:27.752Z,29.80
2018-04-14T09:35:55.259Z,29.80
2018-04-14T09:38:23.592Z,29.40
2018-04-14T09:40:51.739Z,29.30
2018-04-14T09:43:19.903Z,26.30
2018-04-14T09:45:48.067Z,27.10
2018-04-14T09:48:15.850Z,29.30
2018-04-14T09:50:43.250Z,29.50
2018-04-14T09:53:10.670Z,29.60
2018-04-14T09:55:38.035Z,28.80
2018-04-14T09:58:05.437Z,28.00
2018-04-14T10:00:32.874Z,28.20
2018-04-14T10:03:00.328Z,28.70
2018-04-14T10:05:27.729Z,26.60
2018-04-14T10:07:55.276Z,27.60
2018-04-14T10:10:22.761Z,28.00
2018-04-14T10:12:50.296Z,27.90
2018-04-14T10:15:17.712Z,28.10
2018-04-14T10:17:45.817Z,28.30
2018-04-14T10:20:13.202Z,27.40
2018-04-14T10:22:40.583Z,26.90
2018-04-14T10:25:09.291Z,28.70
2018-04-14T10:27:36.726Z,28.70
2018-04-14T10:32:32.473Z,26.40
2018-04-14T10:35:00.881Z,27.40
2018-04-14T10:37:28.267Z,27.10
2018-04-14T10:39:55.722Z,26.70
2018-04-14T10:42:23.119Z,26.10
2018-04-14T10:44:50.698Z,23.60
2018-04-14T10:47:18.179Z,26.20
2018-04-14T10:49:45.597Z,23.20
2018-04-14T10:52:13.038Z,22.50
2018-04-14T10:54:41.342Z,26.50
2018-04-14T10:57:08.953Z,25.20
2018-04-14T10:59:37.308Z,26.70
2018-04-14T11:02:04.762Z,26.60
2018-04-14T11:04:32.243Z,25.90
2018-04-14T11:06:59.665Z,25.20
2018-04-14T11:09:27.910Z,22.20
2018-04-14T11:11:55.641Z,24.10
2018-04-14T11:14:23.279Z,25.90
2018-04-14T11:16:50.730Z,25.90
2018-04-14T11:19:25.792Z,27.90
2018-04-14T11:22:02.496Z,27.00
2018-04-14T11:24:29.927Z,30.40
2018-04-14T11:27:00.037Z,30.60
2018-04-14T11:29:30.222Z,30.90
2018-04-14T11:31:57.651Z,30.30
2018-04-14T11:34:26.808Z,30.30
2018-04-14T11:36:54.141Z,29.10
2018-04-14T11:39:21.761Z,28.30
2018-04-14T11:41:49.153Z,28.00
2018-04-14T11:44:16.662Z,27.30
2018-04-14T11:46:44.091Z,26.50
2018-04-14T11:49:12.201Z,25.80
2018-04-14T11:51:41.533Z,25.60
2018-04-14T11:54:10.752Z,28.10
2018-04-14T11:56:38.177Z,29.30
2018-04-14T11:59:06.418Z,29.70
2018-04-14T12:01:34.624Z,29.10
2018-04-14T12:04:02.906Z,29.10
2018-04-14T12:06:30.301Z,29.20
2018-04-14T12:09:01.967Z,28.00
2018-04-14T12:11:37.020Z,26.50
2018-04-14T12:14:05.119Z,25.70
2018-04-14T12:16:34.150Z,24.00
2018-04-14T12:21:30.575Z,25.80
2018-04-14T12:23:57.981Z,25.90
2018-04-14T12:26:26.106Z,26.80
2018-04-14T12:28:53.514Z,27.90
2018-04-14T12:33:49.901Z,26.10
2018-04-14T12:36:17.284Z,24.50
2018-04-14T12:38:44.830Z,26.80
2018-04-14T12:41:13.009Z,26.80
2018-04-14T12:43:40.418Z,23.90
2018-04-14T12:46:07.774Z,23.00
2018-04-14T12:48:35.338Z,26.10
2018-04-14T12:51:02.703Z,24.50
2018-04-14T12:53:30.087Z,27.30
2018-04-14T12:55:57.471Z,27.30
2018-04-14T12:58:24.943Z,27.80
2018-04-14T13:00:53.151Z,27.10
2018-04-14T13:03:20.550Z,27.10
2018-04-14T13:05:48.677Z,27.20
2018-04-14T13:08:16.015Z,27.40
2018-04-14T13:10:43.389Z,26.60
2018-04-14T13:13:10.864Z,25.20
2018-04-14T13:15:38.218Z,25.60
2018-04-14T13:20:34.841Z,25.10
2018-04-14T13:23:02.240Z,25.60
2018-04-14T13:25:30.453Z,26.30
2018-04-14T13:27:57.843Z,25.50
2018-04-14T13:30:25.284Z,25.80
2018-04-14T13:32:52.740Z,24.10
2018-04-14T13:35:20.126Z,24.40
2018-04-14T13:37:47.648Z,24.80
2018-04-14T13:40:15.073Z,25.10
2018-04-14T13:42:43.227Z,25.30
2018-04-14T13:45:11.452Z,25.60
2018-04-14T13:47:38.839Z,23.40
2018-04-14T13:50:06.395Z,25.40
2018-04-14T13:52:33.784Z,25.50
2018-04-14T13:55:01.168Z,25.80
2018-04-14T13:57:28.531Z,25.40
2018-04-14T13:59:55.921Z,25.20
2018-04-14T14:02:23.341Z,25.20
2018-04-14T14:04:50.732Z,25.40
2018-04-14T14:07:18.155Z,25.60
2018-04-14T14:09:45.607Z,25.50
2018-04-14T14:12:13.098Z,25.10
2018-04-14T14:17:09.525Z,25.30
2018-04-14T14:19:37.911Z,25.50
2018-04-14T14:22:06.091Z,25.40
2018-04-14T14:24:34.219Z,25.40
2018-04-14T14:29:30.815Z,25.50
2018-04-14T14:31:58.211Z,25.50
2018-04-14T14:36:54.027Z,25.00
2018-04-14T14:39:21.428Z,25.50
2018-04-14T14:41:49.538Z,25.50
2018-04-14T14:44:17.130Z,25.50
2018-04-14T14:46:45.270Z,26.30
2018-04-14T14:49:12.681Z,26.80
2018-04-14T14:51:40.056Z,26.40
2018-04-14T14:54:07.435Z,27.00
2018-04-14T14:56:34.933Z,27.20
2018-04-14T15:01:30.550Z,27.00
2018-04-14T15:03:57.926Z,27.10
2018-04-14T15:06:26.028Z,25.90
2018-04-14T15:08:53.472Z,27.20
2018-04-14T15:11:20.874Z,26.40
2018-04-14T15:13:48.238Z,26.40
2018-04-14T15:16:15.650Z,26.80
2018-04-14T15:21:11.347Z,27.10
2018-04-14T15:26:07.811Z,23.70
2018-04-14T15:28:35.279Z,26.50
2018-04-14T15:31:03.384Z,27.00
2018-04-14T15:33:30.849Z,27.30
2018-04-14T15:38:26.533Z,23.60
2018-04-14T15:40:54.711Z,27.40
2018-04-14T15:43:22.083Z,28.00
2018-04-14T15:45:49.508Z,27.50
2018-04-14T15:48:16.934Z,25.80
2018-04-14T15:50:45.200Z,28.10
2018-04-14T15:53:13.297Z,28.50
2018-04-14T15:55:41.423Z,28.30
2018-04-14T16:03:05.439Z,29.50
2018-04-14T16:08:01.964Z,29.80
2018-04-14T16:10:29.508Z,29.60
2018-04-14T16:15:25.274Z,30.00
2018-04-14T16:20:21.799Z,30.40
2018-04-14T16:25:17.477Z,29.80
2018-04-14T16:32:41.466Z,30.20
2018-04-14T16:35:08.851Z,29.90
2018-04-14T16:40:05.558Z,30.00
2018-04-14T16:42:32.951Z,30.70
2018-04-14T16:45:01.068Z,30.80
2018-04-14T16:47:28.466Z,31.20
2018-04-14T16:52:24.160Z,31.10
2018-04-14T16:54:52.240Z,30.60
2018-04-14T16:57:19.585Z,30.80
2018-04-14T16:59:47.713Z,30.60
2018-04-14T17:09:41.255Z,30.90
2018-04-14T17:12:08.649Z,30.60
2018-04-14T17:14:36.215Z,30.90
2018-04-14T17:17:03.563Z,31.40
2018-04-14T17:19:31.074Z,31.00
2018-04-14T17:21:59.170Z,31.30
2018-04-14T17:29:23.132Z,31.40
2018-04-14T17:31:51.263Z,31.50
2018-04-14T17:34:18.659Z,31.70
2018-04-14T17:39:14.358Z,32.00
2018-04-14T17:41:41.913Z,32.00
2018-04-14T17:49:06.648Z,32.40
2018-04-14T17:54:03.105Z,32.50
2018-04-14T17:58:59.643Z,32.10
2018-04-14T18:01:27.822Z,31.90
2018-04-14T18:06:25.198Z,31.70
2018-04-14T18:08:52.558Z,28.50
2018-04-14T18:11:19.982Z,28.70
2018-04-14T18:13:48.103Z,29.50
2018-04-14T18:16:16.382Z,29.00
2018-04-14T18:21:12.098Z,33.40
2018-04-14T18:23:39.500Z,29.90
2018-04-14T18:26:07.612Z,32.40
2018-04-14T18:28:35.079Z,29.90
2018-04-14T18:31:02.523Z,29.50
2018-04-14T18:33:29.939Z,34.20
2018-04-14T18:35:57.714Z,31.20
2018-04-14T18:38:25.119Z,30.80
2018-04-14T18:40:52.593Z,34.10
2018-04-14T18:43:20.021Z,32.90
2018-04-14T18:45:48.272Z,31.90
2018-04-14T18:50:44.911Z,32.40
2018-04-14T18:53:12.350Z,33.10
2018-04-14T18:58:08.066Z,36.80
2018-04-14T19:00:36.381Z,34.20
2018-04-14T19:03:03.730Z,35.00
2018-04-14T19:05:31.279Z,35.90
2018-04-14T19:07:58.658Z,35.70
2018-04-14T19:10:26.136Z,35.80
2018-04-14T19:12:53.539Z,31.70
2018-04-14T19:15:20.927Z,36.50
2018-04-14T19:17:49.188Z,36.90
2018-04-14T19:20:16.761Z,36.40
2018-04-14T19:22:44.506Z,35.70
2018-04-14T19:25:11.868Z,35.70
2018-04-14T19:27:40.348Z,35.30
2018-04-14T19:30:07.723Z,35.30
2018-04-14T19:35:04.371Z,34.60
2018-04-14T19:37:32.542Z,35.20
2018-04-14T19:39:59.947Z,35.60
2018-04-14T19:42:28.071Z,35.30
2018-04-14T19:47:23.962Z,36.20
2018-04-14T19:49:52.072Z,36.10
2018-04-14T19:54:47.797Z,36.10
2018-04-14T19:57:16.001Z,36.00
2018-04-14T19:59:44.068Z,35.80
2018-04-14T20:02:11.460Z,35.90
2018-04-14T20:04:41.598Z,35.60
2018-04-14T20:07:08.935Z,35.60
2018-04-14T20:09:37.072Z,35.00
2018-04-14T20:12:04.763Z,33.20
2018-04-14T20:17:00.712Z,34.90
2018-04-14T20:19:28.914Z,35.40
2018-04-14T20:21:56.507Z,36.70
2018-04-14T20:24:23.924Z,36.60
2018-04-14T20:26:51.267Z,36.30
2018-04-14T20:31:46.967Z,36.20
2018-04-14T20:39:11.159Z,38.00
2018-04-14T20:41:40.231Z,37.40
2018-04-14T20:44:08.446Z,37.20
2018-04-14T20:46:36.608Z,37.70
2018-04-14T20:49:04.271Z,38.40
2018-04-14T20:51:31.665Z,38.70
2018-04-14T20:53:59.042Z,38.10
2018-04-14T20:56:28.666Z,37.60
2018-04-14T20:58:56.112Z,37.80
2018-04-14T21:01:24.967Z,39.00
2018-04-14T21:03:53.057Z,39.30
2018-04-14T21:06:20.363Z,38.90
2018-04-14T21:08:49.124Z,38.50
2018-04-14T21:18:42.442Z,40.10
2018-04-14T21:23:39.458Z,39.30
2018-04-14T21:26:06.830Z,39.30
2018-04-14T21:28:35.214Z,38.50
2018-04-14T21:31:02.647Z,39.00
2018-04-14T21:33:30.036Z,38.90
2018-04-14T21:35:58.112Z,39.20
2018-04-14T21:38:26.248Z,39.00
2018-04-14T21:40:53.601Z,38.60
2018-04-14T21:43:21.007Z,40.10
2018-04-14T21:45:48.387Z,41.30
2018-04-14T21:48:16.519Z,40.20
2018-04-14T21:50:44.778Z,40.20
2018-04-14T21:53:12.267Z,39.40
2018-04-14T21:58:08.085Z,39.30
2018-04-14T22:00:36.206Z,39.30
2018-04-14T22:03:03.631Z,40.00
2018-04-14T22:05:31.014Z,40.00
2018-04-14T22:07:59.140Z,41.00
2018-04-14T22:10:26.531Z,41.30
2018-04-14T22:12:54.647Z,40.90
2018-04-14T22:15:22.838Z,40.80
2018-04-14T22:17:50.946Z,40.80
2018-04-14T22:20:19.192Z,40.00
2018-04-14T22:22:46.619Z,40.10
2018-04-14T22:25:13.952Z,39.50
2018-04-14T22:30:10.165Z,41.20
2018-04-14T22:32:38.324Z,40.70
2018-04-14T22:35:05.683Z,40.60
2018-04-14T22:37:33.234Z,41.90
2018-04-14T22:40:00.864Z,43.20
2018-04-14T22:47:26.242Z,42.90
2018-04-14T22:49:53.627Z,41.90
2018-04-14T22:52:22.643Z,42.60
2018-04-14T22:54:51.035Z,42.10
2018-04-14T22:57:18.555Z,41.80
2018-04-14T22:59:47.056Z,42.30
2018-04-14T23:02:14.678Z,42.40
2018-04-14T23:04:42.127Z,41.20
2018-04-14T23:07:09.490Z,41.10
2018-04-14T23:12:06.803Z,41.40
2018-04-14T23:17:03.434Z,44.50
2018-04-14T23:19:32.739Z,45.40
2018-04-14T23:22:01.036Z,45.60
2018-04-14T23:24:29.205Z,44.60
2018-04-14T23:26:56.611Z,44.20
2018-04-14T23:31:53.073Z,44.60
2018-04-14T23:34:21.904Z,43.60
2018-04-14T23:36:51.418Z,44.20
2018-04-14T23:39:18.750Z,43.80
2018-04-14T23:44:15.283Z,44.00
2018-04-14T23:46:43.393Z,43.60
2018-04-14T23:49:10.793Z,43.80
2018-04-14T23:51:38.211Z,43.40
2018-04-14T23:54:05.719Z,42.40
2018-04-14T23:56:33.318Z,43.00
2018-04-14T23:59:00.727Z,43.20
